Time;durP1;ratioP1;P1;durP2;ratioP2;P2;SDS_P1;SDS_P2;PMS_P1;PMS_P2;Temp;Humidity;BMP_temperature;BMP_pressure;BME280_temperature;BME280_humidity;BME280_pressure;Samples;Min_cycle;Max_cycle;Signal;HPM_P1;HPM_P2
2023/09/16 00:01:40;;;;;;;7.75;4.85;;;14.60;88.90;;;;;;5052391;28;20397;-47
2023/09/16 00:04:08;;;;;;;7.85;5.53;;;14.60;89.10;;;;;;5042704;28;20025;-53
2023/09/16 00:06:35;;;;;;;7.93;5.53;;;14.50;89.10;;;;;;5034281;28;20642;-45
2023/09/16 00:09:05;;;;;;;6.88;5.32;;;14.50;89.30;;;;;;5041416;28;20032;-51
2023/09/16 00:11:32;;;;;;;5.82;4.80;;;14.50;89.30;;;;;;5069547;28;20025;-51
2023/09/16 00:13:59;;;;;;;6.90;5.50;;;14.50;89.30;;;;;;5073220;28;20041;-52
2023/09/16 00:16:29;;;;;;;6.13;4.95;;;14.40;89.30;;;;;;5050903;28;20036;-52
2023/09/16 00:18:55;;;;;;;9.43;5.20;;;14.40;89.50;;;;;;5057470;28;20021;-50
2023/09/16 00:21:22;;;;;;;6.90;5.13;;;14.40;89.60;;;;;;5034150;28;20350;-50
2023/09/16 00:23:49;;;;;;;9.80;6.05;;;14.40;89.70;;;;;;5070241;28;20020;-48
2023/09/16 00:26:15;;;;;;;8.75;6.15;;;14.40;89.60;;;;;;5041410;28;20037;-46
2023/09/16 00:28:45;;;;;;;7.43;5.55;;;14.40;89.80;;;;;;5033930;28;20033;-48
2023/09/16 00:31:12;;;;;;;8.25;4.97;;;14.40;89.80;;;;;;5048052;28;20021;-49
2023/09/16 00:33:38;;;;;;;11.25;5.97;;;14.40;89.90;;;;;;5072348;28;20453;-46
2023/09/16 00:36:07;;;;;;;8.02;5.13;;;14.40;89.90;;;;;;5039366;28;20044;-49
2023/09/16 00:38:34;;;;;;;8.55;5.05;;;14.50;89.80;;;;;;5048178;28;20040;-46
2023/09/16 00:41:01;;;;;;;7.93;5.13;;;14.40;89.70;;;;;;5069651;28;20535;-50
2023/09/16 00:43:28;;;;;;;8.60;4.85;;;14.40;89.80;;;;;;5070274;28;20055;-50
2023/09/16 00:45:55;;;;;;;8.40;6.00;;;14.40;89.70;;;;;;5045192;28;20032;-52
2023/09/16 00:48:22;;;;;;;7.40;5.63;;;14.40;89.80;;;;;;5063758;28;20056;-51
2023/09/16 00:50:50;;;;;;;6.97;5.88;;;14.30;89.90;;;;;;5069114;28;20036;-49
2023/09/16 00:53:18;;;;;;;7.20;5.85;;;14.30;89.90;;;;;;5035484;28;20044;-49
2023/09/16 00:55:46;;;;;;;8.25;5.43;;;14.30;89.90;;;;;;5045881;28;20056;-49
2023/09/16 00:58:13;;;;;;;6.90;6.00;;;14.20;89.80;;;;;;5032953;28;20041;-51
2023/09/16 01:00:40;;;;;;;6.45;4.88;;;14.20;90.10;;;;;;5038930;28;20103;-50
2023/09/16 01:03:09;;;;;;;6.28;5.57;;;14.20;90.10;;;;;;5073035;28;20032;-49
2023/09/16 01:05:36;;;;;;;6.50;5.57;;;14.20;90.30;;;;;;5036614;28;20021;-48
2023/09/16 01:08:07;;;;;;;6.40;5.13;;;14.30;90.30;;;;;;5054857;28;20274;-51
2023/09/16 01:10:34;;;;;;;6.45;5.32;;;14.20;90.20;;;;;;5053108;28;20032;-49
2023/09/16 01:13:01;;;;;;;8.80;6.38;;;14.20;90.20;;;;;;5035600;28;20029;-49
2023/09/16 01:15:34;;;;;;;8.50;6.10;;;14.20;90.30;;;;;;5051506;28;20144;-49
2023/09/16 01:18:31;;;;;;;6.55;5.13;;;14.20;90.30;;;;;;5032763;28;20025;-46
2023/09/16 01:21:00;;;;;;;6.00;5.32;;;14.10;90.30;;;;;;5032395;28;20029;-52
2023/09/16 01:23:27;;;;;;;8.65;6.78;;;14.10;90.30;;;;;;5052119;28;20440;-46
2023/09/16 01:25:53;;;;;;;6.53;5.50;;;14.10;90.30;;;;;;5038709;28;20481;-51
2023/09/16 01:28:22;;;;;;;8.23;6.32;;;14.00;90.30;;;;;;5052749;28;20033;-47
2023/09/16 01:30:52;;;;;;;6.80;6.00;;;14.00;90.40;;;;;;5032228;28;20081;-49
2023/09/16 01:33:38;;;;;;;6.95;5.95;;;14.00;90.40;;;;;;5071166;28;20116;-50
2023/09/16 01:36:09;;;;;;;6.53;5.50;;;13.90;90.40;;;;;;5072607;28;20025;-49
2023/09/16 01:38:37;;;;;;;7.05;5.85;;;13.90;90.30;;;;;;5040593;28;20028;-47
2023/09/16 01:41:07;;;;;;;8.43;5.97;;;13.90;90.40;;;;;;5071203;28;20024;-45
2023/09/16 01:43:33;;;;;;;8.52;5.82;;;13.90;90.50;;;;;;5044540;28;20450;-47
2023/09/16 01:46:01;;;;;;;7.68;6.63;;;13.90;90.70;;;;;;5052650;28;20088;-49
2023/09/16 01:48:28;;;;;;;9.23;6.00;;;13.90;90.80;;;;;;5052347;28;20025;-45
2023/09/16 01:50:55;;;;;;;8.80;6.28;;;13.90;90.90;;;;;;5038904;28;20028;-49
2023/09/16 01:53:21;;;;;;;8.68;6.32;;;13.90;91.00;;;;;;5053698;28;20122;-47
2023/09/16 01:55:48;;;;;;;7.90;6.53;;;13.90;91.20;;;;;;5072260;28;20118;-51
2023/09/16 01:58:14;;;;;;;6.97;6.25;;;14.00;91.40;;;;;;5041353;28;20047;-50
2023/09/16 02:00:41;;;;;;;7.30;6.40;;;14.00;91.50;;;;;;5033775;28;20017;-47
2023/09/16 02:03:08;;;;;;;7.80;6.47;;;14.10;91.60;;;;;;5032473;28;20036;-47
2023/09/16 02:05:35;;;;;;;8.60;6.53;;;14.10;91.60;;;;;;5031866;28;20447;-49
2023/09/16 02:08:02;;;;;;;9.40;7.15;;;14.20;91.60;;;;;;5032218;28;20030;-47
2023/09/16 02:10:30;;;;;;;8.25;7.40;;;14.20;91.70;;;;;;5035022;28;20024;-44
2023/09/16 02:12:57;;;;;;;7.93;6.72;;;14.20;91.80;;;;;;5051462;28;20043;-49
2023/09/16 02:15:23;;;;;;;9.45;8.15;;;14.30;91.70;;;;;;5030564;28;20074;-48
2023/09/16 02:17:50;;;;;;;8.60;6.75;;;14.30;91.70;;;;;;5068798;28;20032;-51
2023/09/16 02:20:17;;;;;;;8.52;6.50;;;14.30;91.60;;;;;;5054263;28;20033;-50
2023/09/16 02:22:44;;;;;;;8.25;6.95;;;14.30;91.50;;;;;;5071430;28;20038;-48
2023/09/16 02:25:10;;;;;;;8.60;7.47;;;14.40;91.50;;;;;;5037632;28;20029;-50
2023/09/16 02:27:36;;;;;;;11.23;7.80;;;14.30;91.30;;;;;;5033613;28;20021;-47
2023/09/16 02:30:03;;;;;;;8.13;7.13;;;14.30;91.20;;;;;;5044986;28;20526;-50
2023/09/16 02:32:30;;;;;;;7.90;7.00;;;14.30;91.10;;;;;;5044588;28;20021;-49
2023/09/16 02:34:57;;;;;;;7.78;6.57;;;14.20;91.20;;;;;;5043405;28;20029;-45
2023/09/16 02:37:24;;;;;;;8.30;6.45;;;14.20;91.20;;;;;;5042151;28;20025;-52
2023/09/16 02:39:51;;;;;;;7.18;6.13;;;14.20;91.10;;;;;;5071833;28;20024;-48
2023/09/16 02:42:18;;;;;;;6.85;5.75;;;14.10;90.90;;;;;;5071242;28;20504;-51
2023/09/16 02:44:45;;;;;;;7.90;6.47;;;14.10;90.90;;;;;;5019450;28;20505;-44
2023/09/16 02:47:12;;;;;;;9.32;6.63;;;14.10;90.80;;;;;;5046548;28;20030;-49
2023/09/16 02:49:38;;;;;;;7.90;7.10;;;14.00;90.90;;;;;;5031607;28;20053;-51
2023/09/16 02:52:05;;;;;;;7.50;6.70;;;14.00;91.00;;;;;;5031343;28;20104;-47
2023/09/16 02:54:32;;;;;;;7.90;6.47;;;13.90;91.00;;;;;;5049321;28;20059;-49
2023/09/16 02:56:59;;;;;;;7.70;6.57;;;13.90;91.10;;;;;;5031755;28;20516;-48
2023/09/16 02:59:25;;;;;;;8.90;6.75;;;13.90;91.10;;;;;;5028452;28;20029;-49
2023/09/16 03:01:52;;;;;;;9.45;6.75;;;13.90;91.20;;;;;;5062887;28;20303;-46
2023/09/16 03:04:19;;;;;;;7.60;6.90;;;13.90;91.30;;;;;;5055891;28;20029;-49
2023/09/16 03:06:46;;;;;;;9.02;7.22;;;13.90;91.40;;;;;;5037066;28;20576;-50
2023/09/16 03:09:12;;;;;;;9.32;8.43;;;13.90;91.50;;;;;;5065236;28;20055;-46
2023/09/16 03:11:41;;;;;;;10.18;7.40;;;13.90;91.50;;;;;;5038497;28;20033;-48
2023/09/16 03:14:07;;;;;;;8.65;7.32;;;13.90;91.50;;;;;;5031234;28;20033;-48
2023/09/16 03:16:35;;;;;;;7.57;6.63;;;13.90;91.50;;;;;;5053149;28;20404;-45
2023/09/16 03:19:03;;;;;;;8.20;7.25;;;13.90;91.50;;;;;;5069839;28;20565;-46
2023/09/16 03:21:29;;;;;;;8.23;7.40;;;13.80;91.50;;;;;;5050150;28;20078;-48
2023/09/16 03:23:55;;;;;;;9.23;7.43;;;13.80;91.40;;;;;;5070986;28;20029;-50
2023/09/16 03:26:22;;;;;;;9.43;7.47;;;13.80;91.40;;;;;;5046548;28;20553;-47
2023/09/16 03:28:48;;;;;;;8.63;7.18;;;13.70;91.50;;;;;;5030440;28;20116;-50
2023/09/16 03:31:15;;;;;;;8.20;6.90;;;13.70;91.60;;;;;;5029515;28;20587;-46
2023/09/16 03:33:42;;;;;;;8.15;7.35;;;13.70;91.60;;;;;;5026578;28;20462;-49
2023/09/16 03:36:09;;;;;;;12.38;8.20;;;13.70;91.70;;;;;;5030257;28;20041;-51
2023/09/16 03:38:55;;;;;;;8.85;7.20;;;13.60;91.70;;;;;;5023350;28;20131;-50
2023/09/16 03:41:24;;;;;;;8.93;7.80;;;13.70;91.80;;;;;;5056416;28;20017;-50
2023/09/16 03:43:51;;;;;;;10.07;7.55;;;13.60;91.70;;;;;;5052032;28;20021;-48
2023/09/16 03:46:18;;;;;;;10.25;8.30;;;13.60;91.80;;;;;;5027121;28;20041;-48
2023/09/16 03:48:45;;;;;;;8.85;7.95;;;13.60;91.80;;;;;;5036671;28;20022;-51
2023/09/16 03:51:15;;;;;;;9.23;8.32;;;13.60;91.80;;;;;;5063591;28;20028;-47
2023/09/16 03:53:42;;;;;;;;;;;13.60;91.90;;;;;;5070501;28;20044;-48
2023/09/16 03:56:11;;;;;;;9.57;8.20;;;13.60;91.90;;;;;;5049489;28;19916;-46
2023/09/16 03:58:38;;;;;;;10.45;8.60;;;13.50;91.90;;;;;;5029745;28;20022;-48
2023/09/16 04:01:05;;;;;;;8.90;7.65;;;13.50;91.90;;;;;;5044054;28;20067;-44
2023/09/16 04:03:33;;;;;;;8.93;8.02;;;13.50;91.90;;;;;;5062122;28;20020;-48
2023/09/16 04:06:01;;;;;;;9.60;8.60;;;13.50;91.90;;;;;;5068224;28;20020;-50
2023/09/16 04:08:28;;;;;;;10.57;8.43;;;13.50;92.00;;;;;;5055341;28;20049;-51
2023/09/16 04:10:56;;;;;;;9.07;8.07;;;13.40;92.00;;;;;;5047278;28;20691;-49
2023/09/16 04:13:25;;;;;;;8.63;7.22;;;13.40;91.90;;;;;;5030282;28;20061;-49
2023/09/16 04:15:55;;;;;;;9.68;8.68;;;13.40;92.00;;;;;;5043869;28;20530;-47
2023/09/16 04:18:22;;;;;;;;;;;13.40;91.90;;;;;;5067375;28;20032;-50
2023/09/16 04:20:48;;;;;;;9.32;6.88;;;13.40;91.90;;;;;;5042614;28;19921;-45
2023/09/16 04:23:15;;;;;;;9.20;8.30;;;13.30;91.80;;;;;;5064948;28;20027;-47
2023/09/16 04:25:44;;;;;;;7.72;6.93;;;13.30;91.80;;;;;;5070268;28;20032;-48
2023/09/16 04:28:11;;;;;;;8.77;7.88;;;13.30;91.80;;;;;;5066078;28;20095;-48
2023/09/16 04:30:50;;;;;;;10.65;7.72;;;13.20;91.70;;;;;;5056802;28;20037;-47
2023/09/16 04:33:18;;;;;;;7.95;7.15;;;13.20;91.80;;;;;;5063653;28;20040;-45
2023/09/16 04:35:49;;;;;;;9.88;8.20;;;13.20;91.90;;;;;;5049688;28;20025;-48
2023/09/16 04:38:18;;;;;;;9.27;8.32;;;13.20;92.00;;;;;;5038876;28;20037;-45
2023/09/16 04:40:46;;;;;;;12.20;10.00;;;13.20;92.10;;;;;;5073809;28;20017;-45
2023/09/16 04:43:13;;;;;;;11.20;8.75;;;13.20;92.00;;;;;;5062543;28;20025;-48
2023/09/16 04:45:44;;;;;;;9.25;8.23;;;13.30;92.10;;;;;;5056678;28;20025;-45
2023/09/16 04:48:14;;;;;;;10.38;9.13;;;13.20;92.10;;;;;;5054832;28;20024;-44
2023/09/16 04:50:47;;;;;;;9.98;8.90;;;13.20;92.10;;;;;;5050854;28;20354;-46
2023/09/16 04:53:13;;;;;;;8.88;7.97;;;13.20;92.20;;;;;;5070361;28;20545;-45
2023/09/16 04:55:43;;;;;;;10.40;9.15;;;13.20;92.20;;;;;;5051014;28;20128;-48
2023/09/16 04:58:10;;;;;;;9.65;8.60;;;13.20;92.20;;;;;;5064952;28;20090;-46
2023/09/16 05:00:41;;;;;;;10.88;8.13;;;13.20;92.30;;;;;;5054376;28;20057;-47
2023/09/16 05:03:11;;;;;;;9.43;8.35;;;13.20;92.20;;;;;;5045212;28;20025;-49
2023/09/16 05:05:38;;;;;;;10.23;9.23;;;13.20;92.30;;;;;;5051091;28;20057;-48
2023/09/16 05:08:04;;;;;;;10.10;9.10;;;13.20;92.40;;;;;;5053346;28;20044;-44
2023/09/16 05:10:31;;;;;;;10.82;9.63;;;13.20;92.40;;;;;;5050502;28;20037;-45
2023/09/16 05:12:58;;;;;;;10.20;9.13;;;13.20;92.40;;;;;;5038960;28;20030;-49
2023/09/16 05:15:24;;;;;;;10.55;8.38;;;13.20;92.50;;;;;;5052008;28;20038;-47
2023/09/16 05:17:51;;;;;;;11.40;9.15;;;13.20;92.50;;;;;;5055361;28;20036;-48
2023/09/16 05:20:18;;;;;;;10.65;9.07;;;13.20;92.40;;;;;;5068644;28;20016;-47
2023/09/16 05:22:47;;;;;;;9.90;8.55;;;13.20;92.50;;;;;;5039632;28;20055;-48
2023/09/16 05:25:16;;;;;;;12.27;9.55;;;13.20;92.50;;;;;;5073087;28;20052;-44
2023/09/16 05:27:44;;;;;;;10.10;9.10;;;13.30;92.60;;;;;;5066573;28;20087;-44
2023/09/16 05:30:10;;;;;;;10.82;8.55;;;13.30;92.70;;;;;;5051470;28;20036;-45
2023/09/16 05:32:36;;;;;;;13.18;8.65;;;13.40;92.70;;;;;;5071373;28;20028;-45
2023/09/16 05:35:03;;;;;;;9.77;8.57;;;13.40;92.80;;;;;;5049626;28;20634;-44
2023/09/16 05:37:30;;;;;;;11.45;9.85;;;13.50;92.90;;;;;;5051968;28;20536;-48
2023/09/16 05:39:59;;;;;;;11.18;9.68;;;13.50;93.10;;;;;;5062559;28;20021;-44
2023/09/16 05:42:28;;;;;;;13.57;10.20;;;13.60;93.20;;;;;;5049257;28;20035;-47
2023/09/16 05:44:55;;;;;;;9.68;8.63;;;13.70;93.20;;;;;;5034420;28;20096;-45
2023/09/16 05:47:22;;;;;;;13.25;10.50;;;13.80;93.10;;;;;;5048967;28;20037;-46
2023/09/16 05:49:49;;;;;;;10.82;9.48;;;13.80;93.00;;;;;;5053117;28;20390;-49
2023/09/16 05:52:16;;;;;;;9.75;8.75;;;13.80;93.00;;;;;;5046987;28;20373;-47
2023/09/16 05:54:43;;;;;;;10.57;8.85;;;13.80;92.90;;;;;;5055713;28;20047;-44
2023/09/16 05:57:10;;;;;;;10.38;9.30;;;13.80;92.90;;;;;;5031958;28;20077;-44
2023/09/16 05:59:36;;;;;;;12.38;10.05;;;13.80;92.80;;;;;;5033700;28;20521;-44
2023/09/16 06:02:06;;;;;;;11.50;9.57;;;13.90;92.80;;;;;;5051294;28;20108;-44
2023/09/16 06:04:33;;;;;;;9.55;8.57;;;13.90;92.80;;;;;;5045895;28;20358;-45
2023/09/16 06:06:59;;;;;;;10.63;9.52;;;13.90;92.80;;;;;;5067678;28;20536;-44
2023/09/16 06:09:26;;;;;;;9.75;8.75;;;13.90;92.70;;;;;;5047049;28;20037;-48
2023/09/16 06:11:53;;;;;;;9.98;8.98;;;13.90;92.50;;;;;;5066503;28;20115;-44
2023/09/16 06:14:20;;;;;;;9.25;8.15;;;13.90;92.40;;;;;;5039187;28;20032;-45
2023/09/16 06:16:47;;;;;;;9.82;8.30;;;13.90;92.40;;;;;;5051740;28;20503;-46
2023/09/16 06:19:14;;;;;;;10.73;8.93;;;14.00;92.40;;;;;;5053794;28;20032;-45
2023/09/16 06:21:40;;;;;;;11.63;8.85;;;14.00;92.40;;;;;;5023509;28;20025;-48
2023/09/16 06:24:07;;;;;;;10.48;7.95;;;14.00;92.40;;;;;;5051119;28;20032;-44
2023/09/16 06:26:34;;;;;;;10.02;8.98;;;14.10;92.60;;;;;;5050144;28;20040;-43
2023/09/16 06:29:02;;;;;;;10.32;8.82;;;14.10;92.50;;;;;;5044717;28;20446;-44
2023/09/16 06:31:28;;;;;;;10.57;9.40;;;14.20;92.50;;;;;;5033531;28;20609;-45
2023/09/16 06:33:55;;;;;;;9.80;8.80;;;14.20;92.40;;;;;;5052791;28;20100;-48
2023/09/16 06:36:23;;;;;;;10.57;9.60;;;14.20;92.40;;;;;;5047231;28;20052;-44
2023/09/16 06:38:49;;;;;;;11.13;8.60;;;14.30;92.30;;;;;;5046290;28;20091;-46
2023/09/16 06:41:15;;;;;;;11.15;9.07;;;14.40;92.40;;;;;;5048492;28;20492;-46
2023/09/16 06:43:44;;;;;;;9.57;8.20;;;14.40;92.30;;;;;;5046482;28;20025;-44
2023/09/16 06:46:13;;;;;;;12.32;9.20;;;14.50;92.30;;;;;;5054076;28;20045;-44
2023/09/16 06:48:40;;;;;;;10.80;8.63;;;14.50;92.20;;;;;;5045806;28;20021;-46
2023/09/16 06:51:06;;;;;;;9.80;8.02;;;14.50;92.10;;;;;;5047075;28;20033;-45
2023/09/16 06:53:35;;;;;;;9.13;7.88;;;14.60;92.10;;;;;;5046374;28;20029;-44
2023/09/16 06:56:02;;;;;;;8.93;8.02;;;14.70;91.90;;;;;;5048950;28;20410;-45
2023/09/16 06:58:28;;;;;;;11.27;9.73;;;14.70;91.90;;;;;;5049649;28;20029;-46
2023/09/16 07:00:55;;;;;;;10.52;8.70;;;14.80;91.90;;;;;;5047711;28;20095;-44
2023/09/16 07:03:22;;;;;;;11.35;8.93;;;14.90;91.80;;;;;;5039869;28;20439;-45
2023/09/16 07:05:49;;;;;;;16.58;9.38;;;14.90;91.60;;;;;;5052935;28;20029;-48
2023/09/16 07:08:17;;;;;;;10.35;8.13;;;14.90;91.40;;;;;;5041402;28;20071;-45
2023/09/16 07:10:43;;;;;;;11.20;9.35;;;14.90;91.30;;;;;;5047976;28;20509;-45
2023/09/16 07:13:12;;;;;;;9.18;8.00;;;15.00;91.30;;;;;;5042955;28;20032;-46
2023/09/16 07:15:39;;;;;;;10.40;8.47;;;15.00;91.10;;;;;;5049076;28;20503;-48
2023/09/16 07:18:08;;;;;;;9.25;8.30;;;15.10;91.10;;;;;;5051541;28;20453;-49
2023/09/16 07:20:34;;;;;;;9.43;8.33;;;15.20;90.90;;;;;;5048972;28;20036;-46
2023/09/16 07:23:03;;;;;;;9.07;7.75;;;15.30;90.90;;;;;;5070384;28;20028;-49
2023/09/16 07:25:32;;;;;;;11.05;9.50;;;15.30;90.90;;;;;;5029642;28;20033;-45
2023/09/16 07:27:58;;;;;;;9.18;8.20;;;15.40;90.60;;;;;;5039378;28;20043;-45
2023/09/16 07:30:24;;;;;;;8.57;7.30;;;15.40;90.60;;;;;;5049387;28;20025;-45
2023/09/16 07:32:50;;;;;;;8.15;7.00;;;15.50;90.50;;;;;;5065071;28;20025;-45
2023/09/16 07:35:17;;;;;;;10.48;8.00;;;15.60;90.60;;;;;;5030533;28;20398;-45
2023/09/16 07:37:46;;;;;;;8.38;7.47;;;15.90;90.40;;;;;;5029994;28;20040;-47
2023/09/16 07:40:13;;;;;;;8.63;7.10;;;16.10;89.50;;;;;;5051101;28;20032;-46
2023/09/16 07:42:39;;;;;;;9.20;7.75;;;16.40;89.20;;;;;;5056967;28;20341;-45
2023/09/16 07:45:07;;;;;;;8.68;7.28;;;16.80;88.20;;;;;;5068036;28;20469;-48
2023/09/16 07:47:36;;;;;;;9.15;6.45;;;17.10;86.40;;;;;;5039519;28;21868;-49
2023/09/16 07:50:03;;;;;;;7.10;5.93;;;17.50;85.90;;;;;;5047190;28;20029;-49
2023/09/16 07:52:29;;;;;;;8.38;6.00;;;17.90;85.70;;;;;;5049344;28;20052;-49
2023/09/16 07:54:57;;;;;;;6.43;5.72;;;18.30;83.80;;;;;;5031865;28;20107;-51
2023/09/16 07:57:28;;;;;;;8.27;5.32;;;18.60;83.10;;;;;;5030479;28;20029;-51
2023/09/16 07:59:55;;;;;;;8.75;5.47;;;18.90;82.00;;;;;;5030081;28;20059;-48
2023/09/16 08:02:21;;;;;;;6.35;4.95;;;19.10;79.90;;;;;;5030283;28;20017;-51
2023/09/16 08:04:52;;;;;;;8.70;5.03;;;19.30;80.10;;;;;;5043225;28;20078;-52
2023/09/16 08:07:18;;;;;;;7.15;4.80;;;19.60;78.90;;;;;;5035564;28;20041;-51
2023/09/16 08:09:46;;;;;;;6.35;5.13;;;19.80;78.50;;;;;;5029154;28;20037;-51
2023/09/16 08:12:13;;;;;;;5.80;5.10;;;20.00;77.00;;;;;;5062082;28;20035;-48
2023/09/16 08:14:40;;;;;;;6.35;5.30;;;20.10;76.30;;;;;;5072049;28;20075;-51
2023/09/16 08:17:07;;;;;;;6.78;5.70;;;20.40;75.30;;;;;;5057273;28;20028;-50
2023/09/16 08:19:33;;;;;;;9.25;4.80;;;20.70;74.80;;;;;;5033264;28;20702;-47
2023/09/16 08:21:59;;;;;;;5.53;5.00;;;20.90;73.40;;;;;;5014682;28;20029;-54
2023/09/16 08:24:25;;;;;;;9.65;4.50;;;20.90;73.20;;;;;;5039434;28;20026;-51
2023/09/16 08:26:52;;;;;;;6.00;4.45;;;21.20;73.30;;;;;;5067558;28;20032;-53
2023/09/16 08:29:18;;;;;;;8.38;5.88;;;21.20;71.30;;;;;;5074759;28;20103;-50
2023/09/16 08:31:44;;;;;;;6.30;5.03;;;21.40;71.80;;;;;;5056068;28;20163;-49
2023/09/16 08:34:11;;;;;;;7.20;4.90;;;21.30;70.80;;;;;;5054678;28;20028;-51
2023/09/16 08:36:38;;;;;;;8.27;5.25;;;21.40;70.30;;;;;;5044273;28;20041;-51
2023/09/16 08:39:06;;;;;;;5.25;4.60;;;21.40;71.10;;;;;;5050475;28;20029;-51
2023/09/16 08:42:26;;;;;;;7.77;5.07;;;21.50;70.90;;;;;;5032241;28;20466;-51
2023/09/16 08:44:54;;;;;;;5.75;4.45;;;21.70;70.30;;;;;;4957584;28;20094;-53
2023/09/16 08:48:01;;;;;;;6.90;5.67;;;21.90;70.60;;;;;;4973319;28;20082;-48
2023/09/16 08:50:30;;;;;;;7.30;5.30;;;22.10;70.00;;;;;;5030601;28;20037;-48
2023/09/16 08:53:03;;;;;;;6.80;5.53;;;21.70;68.20;;;;;;5049797;28;20063;-55
2023/09/16 08:55:32;;;;;;;6.30;4.95;;;21.90;69.80;;;;;;5027504;28;20037;-53
2023/09/16 08:58:10;;;;;;;6.18;4.80;;;21.90;68.70;;;;;;5035446;28;20021;-55
2023/09/16 09:00:37;;;;;;;5.68;4.68;;;22.00;69.60;;;;;;5029789;28;20040;-51
2023/09/16 09:03:07;;;;;;;7.20;5.13;;;22.20;68.70;;;;;;5039407;28;20020;-53
2023/09/16 09:05:36;;;;;;;8.52;4.97;;;22.20;69.80;;;;;;5043492;28;20038;-49
2023/09/16 09:08:08;;;;;;;6.40;4.88;;;22.40;69.90;;;;;;5023478;28;20076;-53
2023/09/16 09:10:37;;;;;;;6.60;5.75;;;22.40;68.60;;;;;;5036449;28;20052;-50
2023/09/16 09:13:14;;;;;;;9.10;4.50;;;22.60;69.80;;;;;;5034353;28;20037;-50
2023/09/16 09:15:43;;;;;;;5.10;4.53;;;22.60;69.70;;;;;;4989973;28;20029;-55
2023/09/16 09:18:15;;;;;;;;;;;22.60;67.00;;;;;;5033975;28;20032;-51
2023/09/16 09:20:42;;;;;;;9.23;4.88;;;22.50;66.50;;;;;;5023523;28;19921;-49
2023/09/16 09:23:09;;;;;;;6.05;4.63;;;22.60;66.80;;;;;;5023600;28;20470;-49
2023/09/16 09:25:36;;;;;;;7.30;4.10;;;22.70;66.70;;;;;;5019473;28;20045;-53
2023/09/16 09:28:06;;;;;;;6.72;4.45;;;23.00;66.20;;;;;;5031901;28;20439;-50
2023/09/16 09:30:35;;;;;;;4.38;3.50;;;23.20;67.00;;;;;;5019785;28;20101;-53
2023/09/16 09:33:03;;;;;;;7.75;4.57;;;23.20;64.10;;;;;;5025547;28;20053;-51
2023/09/16 09:35:33;;;;;;;5.20;4.35;;;23.30;64.70;;;;;;5028202;28;20058;-54
2023/09/16 09:38:00;;;;;;;8.95;4.70;;;23.10;63.80;;;;;;5027184;28;20490;-51
2023/09/16 09:40:28;;;;;;;5.43;4.22;;;23.20;64.70;;;;;;5034768;28;20047;-53
2023/09/16 09:42:57;;;;;;;4.78;3.92;;;23.30;64.30;;;;;;5033090;28;20087;-51
2023/09/16 09:45:27;;;;;;;6.40;4.43;;;23.40;65.50;;;;;;5014746;28;20053;-49
2023/09/16 09:48:00;;;;;;;5.97;5.00;;;23.70;65.50;;;;;;5014440;28;20022;-54
2023/09/16 09:50:30;;;;;;;9.98;5.45;;;23.60;63.80;;;;;;5014272;28;20065;-53
2023/09/16 09:52:56;;;;;;;9.93;6.13;;;23.40;65.30;;;;;;4997542;28;20116;-51
2023/09/16 09:55:28;;;;;;;5.55;5.00;;;22.90;63.90;;;;;;5033661;28;20053;-48
2023/09/16 09:57:55;;;;;;;6.20;4.70;;;22.40;66.60;;;;;;5038579;28;20036;-51
2023/09/16 10:00:23;;;;;;;7.25;5.22;;;22.10;67.30;;;;;;5053717;28;20021;-50
2023/09/16 10:02:49;;;;;;;8.68;6.00;;;21.90;67.10;;;;;;5053564;28;20031;-51
2023/09/16 10:05:35;;;;;;;8.25;5.85;;;21.70;69.60;;;;;;5038259;28;20060;-48
2023/09/16 10:08:02;;;;;;;6.20;5.00;;;21.70;69.40;;;;;;5040467;28;20021;-55
2023/09/16 10:10:34;;;;;;;6.10;5.30;;;21.60;69.10;;;;;;5053624;28;20033;-51
2023/09/16 10:13:00;;;;;;;6.85;5.55;;;21.60;68.60;;;;;;5039592;28;20028;-51
2023/09/16 10:15:44;;;;;;;7.68;6.13;;;21.50;69.50;;;;;;5033803;28;20108;-50
2023/09/16 10:18:13;;;;;;;7.50;6.40;;;21.60;70.00;;;;;;5034077;28;20026;-53
2023/09/16 10:20:45;;;;;;;5.90;4.57;;;21.50;70.40;;;;;;5033911;28;20036;-48
2023/09/16 10:23:12;;;;;;;8.93;6.22;;;21.40;71.20;;;;;;5033909;28;20418;-53
2023/09/16 10:25:39;;;;;;;6.43;5.72;;;21.20;71.70;;;;;;5016338;28;20110;-52
2023/09/16 10:28:07;;;;;;;6.50;5.57;;;21.20;72.80;;;;;;5016412;28;20069;-53
2023/09/16 10:30:35;;;;;;;7.40;5.85;;;21.10;72.50;;;;;;5033475;28;20431;-52
2023/09/16 10:33:04;;;;;;;6.88;6.07;;;21.20;72.50;;;;;;5033259;28;20470;-53
2023/09/16 10:35:37;;;;;;;6.35;5.03;;;21.20;71.60;;;;;;5033692;28;20045;-52
2023/09/16 10:38:07;;;;;;;9.57;6.22;;;21.20;71.80;;;;;;5033487;28;20029;-53
2023/09/16 10:40:35;;;;;;;7.35;6.03;;;21.30;72.50;;;;;;5033685;28;20055;-52
2023/09/16 10:43:03;;;;;;;9.15;6.85;;;21.50;73.00;;;;;;5033664;28;20386;-52
2023/09/16 10:45:31;;;;;;;7.03;6.32;;;21.50;70.50;;;;;;5033411;28;20622;-55
2023/09/16 10:48:02;;;;;;;7.15;5.22;;;21.70;69.90;;;;;;5033412;28;20688;-53
2023/09/16 10:50:34;;;;;;;8.38;5.78;;;21.80;70.40;;;;;;5015856;28;20112;-52
2023/09/16 10:53:14;;;;;;;12.60;6.25;;;21.90;69.30;;;;;;5014899;28;20137;-53
2023/09/16 10:56:17;;;;;;;8.57;6.47;;;22.00;68.80;;;;;;5012970;28;20478;-50
2023/09/16 10:58:50;;;;;;;8.38;6.13;;;22.10;68.00;;;;;;5013162;28;20030;-49
2023/09/16 11:01:39;;;;;;;7.22;6.13;;;22.10;68.80;;;;;;5013523;28;20045;-52
2023/09/16 11:04:15;;;;;;;10.20;7.05;;;22.00;68.30;;;;;;5013532;28;20440;-49
2023/09/16 11:06:47;;;;;;;9.82;6.13;;;22.00;68.40;;;;;;5016593;28;20111;-54
2023/09/16 11:09:24;;;;;;;7.57;5.68;;;22.00;70.20;;;;;;5033011;28;20032;-54
2023/09/16 11:11:55;;;;;;;7.03;5.97;;;22.00;69.40;;;;;;5026950;28;20030;-52
2023/09/16 11:14:22;;;;;;;5.80;4.90;;;22.10;69.50;;;;;;5013164;28;20684;-52
2023/09/16 11:16:53;;;;;;;6.00;5.35;;;22.10;69.50;;;;;;5012811;28;20042;-55
2023/09/16 11:19:22;;;;;;;9.23;5.72;;;22.20;69.40;;;;;;5013294;28;20030;-50
2023/09/16 11:21:49;;;;;;;11.75;6.82;;;22.10;69.90;;;;;;5013402;28;20117;-50
2023/09/16 11:24:16;;;;;;;6.95;5.60;;;22.10;68.80;;;;;;5013036;28;20030;-52
2023/09/16 11:26:49;;;;;;;7.95;5.65;;;22.30;70.40;;;;;;5015634;28;20114;-50
2023/09/16 11:29:25;;;;;;;7.50;6.57;;;22.40;70.00;;;;;;5032558;28;20069;-54
2023/09/16 11:31:54;;;;;;;6.97;6.28;;;22.50;70.20;;;;;;5031815;28;20577;-52
2023/09/16 11:34:26;;;;;;;6.05;5.45;;;22.60;68.90;;;;;;5013329;28;20129;-51
2023/09/16 11:36:57;;;;;;;6.32;5.72;;;22.70;68.20;;;;;;5013230;28;20036;-52
2023/09/16 11:39:46;;;;;;;5.65;5.03;;;22.70;69.70;;;;;;5012959;28;20560;-53
2023/09/16 11:42:12;;;;;;;6.00;5.00;;;22.70;69.10;;;;;;5012845;28;20440;-50
2023/09/16 11:44:40;;;;;;;5.18;4.68;;;22.60;68.20;;;;;;5012935;28;20064;-55
2023/09/16 11:47:09;;;;;;;5.45;3.95;;;22.50;67.50;;;;;;4994995;28;20058;-53
2023/09/16 11:49:36;;;;;;;5.95;5.30;;;22.30;69.10;;;;;;5012160;28;20022;-50
2023/09/16 11:52:03;;;;;;;6.15;5.05;;;22.20;71.10;;;;;;5012489;28;20088;-52
2023/09/16 11:54:30;;;;;;;7.57;5.40;;;22.30;72.40;;;;;;5012638;28;20054;-54
2023/09/16 11:57:00;;;;;;;6.60;5.55;;;22.40;73.60;;;;;;5012412;28;20026;-51
2023/09/16 11:59:27;;;;;;;6.18;4.97;;;22.50;73.90;;;;;;5012758;28;20040;-50
2023/09/16 12:01:57;;;;;;;7.82;6.03;;;22.60;73.60;;;;;;5012784;28;20030;-54
2023/09/16 12:04:26;;;;;;;7.28;5.13;;;22.50;72.00;;;;;;5032630;28;20033;-55
2023/09/16 12:06:54;;;;;;;8.65;5.85;;;22.60;72.30;;;;;;5028956;28;20644;-50
2023/09/16 12:09:24;;;;;;;6.88;4.95;;;22.70;71.80;;;;;;5012465;28;20418;-54
2023/09/16 12:11:51;;;;;;;7.65;5.78;;;22.90;72.50;;;;;;5010740;28;20057;-52
2023/09/16 12:14:18;;;;;;;7.38;5.45;;;22.90;70.40;;;;;;5005928;28;20041;-51
2023/09/16 12:16:45;;;;;;;10.90;5.90;;;22.90;70.10;;;;;;5025232;28;20026;-52
2023/09/16 12:19:15;;;;;;;7.03;5.93;;;22.90;68.80;;;;;;5012573;28;20099;-50
2023/09/16 12:21:48;;;;;;;;;;;22.90;71.00;;;;;;5012520;28;20084;-53
2023/09/16 12:24:19;;;;;;;7.10;6.32;;;22.90;70.00;;;;;;5012848;28;19909;-53
2023/09/16 12:26:49;;;;;;;9.18;6.28;;;23.00;69.80;;;;;;5012470;28;20040;-54
2023/09/16 12:29:16;;;;;;;7.20;6.55;;;23.10;71.20;;;;;;5012460;28;20033;-54
2023/09/16 12:31:43;;;;;;;7.15;5.72;;;23.10;71.60;;;;;;5012658;28;20522;-53
2023/09/16 12:34:21;;;;;;;9.15;5.90;;;23.00;70.00;;;;;;5012322;28;20095;-55
2023/09/16 12:36:53;;;;;;;6.73;5.50;;;22.80;69.60;;;;;;5012172;28;20052;-49
2023/09/16 12:39:22;;;;;;;7.15;6.45;;;22.60;69.90;;;;;;5012040;28;20037;-53
2023/09/16 12:41:49;;;;;;;7.93;7.13;;;22.60;71.10;;;;;;5011735;28;20695;-51
2023/09/16 12:44:17;;;;;;;6.72;5.90;;;22.60;70.30;;;;;;5031103;28;20330;-49
2023/09/16 12:46:46;;;;;;;8.00;7.05;;;22.60;71.60;;;;;;5025653;28;20079;-53
2023/09/16 12:49:13;;;;;;;7.88;6.47;;;22.50;71.50;;;;;;5036774;28;20025;-49
2023/09/16 12:51:40;;;;;;;7.60;6.90;;;22.30;72.60;;;;;;5008057;28;20117;-48
2023/09/16 12:54:07;;;;;;;8.13;7.32;;;22.30;71.50;;;;;;5042331;28;20102;-50